Íslenskir flugvellir

Veldu flugvelli í þeirri röð sem þeir eiga að birtast og styddu á hnappinn

Uppfært síðast 03.06.2020 - kl. 07:57

SIGMET síðustu 6 klst.

Engin SIGMET skeyti bárust síðustu 6 klst.

Egilsstaðir

METAR síðustu 3 klst

TímiSkeyti
2020-06-03 08.00METAR BIEG 030800Z 09003KT 9999 SCT053 11/01 Q1019
2020-06-03 07.00METAR BIEG 030700Z 20005KT 9999 FEW053 SCT150 10/02 Q1019
2020-06-03 06.00METAR BIEG 030600Z 18003KT 9999 FEW053 SCT140 09/03 Q1019
2020-06-03 05.00METAR BIEG 030500Z 16004KT 9999 FEW053 SCT130 06/03 Q1020

TAF

TAFBIEG2020-06-03 04.32Z03060622008KT 9999 FEW050 TX14/0312Z TN03/0403Z BECMG 0311/0313 01012KT BKN030

Allur vindur er réttvísandi bæði í Metar og frá sjálfvirkum veðurstöðvum




Aðrir tengdir vefir



Þetta vefsvæði byggir á Eplica